Time;durP1;ratioP1;P1;durP2;ratioP2;P2;SDS_P1;SDS_P2;PMS_P1;PMS_P2;Temp;Humidity;BMP_temperature;BMP_pressure;BME280_temperature;BME280_humidity;BME280_pressure;Samples;Min_cycle;Max_cycle;Signal;HPM_P1;HPM_P2
2022/02/07 00:01:32;;;;;;;4.68;1.13;;;6.40;90.70;;;;;;5040658;28;20039;-80
2022/02/07 00:04:00;;;;;;;3.13;0.50;;;6.20;90.70;;;;;;5041900;28;20481;-80
2022/02/07 00:06:26;;;;;;;3.55;0.60;;;6.10;91.00;;;;;;5041715;28;20036;-80
2022/02/07 00:08:52;;;;;;;0.77;0.43;;;6.10;91.30;;;;;;5040841;28;20033;-81
2022/02/07 00:11:19;;;;;;;1.23;0.35;;;6.20;91.40;;;;;;5041360;28;20056;-80
2022/02/07 00:13:45;;;;;;;2.05;0.60;;;6.10;90.90;;;;;;5041846;28;20114;-80
2022/02/07 00:16:11;;;;;;;1.27;0.73;;;6.00;91.10;;;;;;5042581;28;20941;-80
2022/02/07 00:18:38;;;;;;;2.15;0.47;;;6.00;91.10;;;;;;5040540;28;20045;-80
2022/02/07 00:21:05;;;;;;;2.03;0.60;;;6.10;90.90;;;;;;5041350;28;20487;-81
2022/02/07 00:23:31;;;;;;;0.75;0.20;;;6.00;90.40;;;;;;5037538;28;20126;-76
2022/02/07 00:25:57;;;;;;;2.15;0.52;;;6.00;90.50;;;;;;5040073;28;20128;-76
2022/02/07 00:28:23;;;;;;;0.85;0.25;;;5.90;90.50;;;;;;5033510;28;20128;-76
2022/02/07 00:30:49;;;;;;;0.43;0.20;;;5.90;90.30;;;;;;5038203;28;20116;-77
2022/02/07 00:33:16;;;;;;;0.20;0.20;;;5.80;90.30;;;;;;5039973;28;20056;-76
2022/02/07 00:35:42;;;;;;;0.90;0.30;;;5.80;90.30;;;;;;5036926;28;20102;-76
2022/02/07 00:38:17;;;;;;;3.63;0.55;;;5.70;90.10;;;;;;5040561;28;20534;-77
2022/02/07 00:45:56;;;;;;;0.45;0.43;;;5.40;90.10;;;;;;5041660;28;20051;-76
2022/02/07 00:48:24;;;;;;;2.33;0.30;;;5.40;90.00;;;;;;5040702;28;20040;-76
2022/02/07 00:50:55;;;;;;;1.50;0.38;;;5.30;90.10;;;;;;5040551;28;20029;-76
2022/02/07 00:53:24;;;;;;;1.90;0.22;;;5.30;89.80;;;;;;5037870;28;20037;-80
2022/02/07 00:55:51;;;;;;;0.55;0.25;;;5.30;89.10;;;;;;5023724;28;20063;-80
2022/02/07 00:58:18;;;;;;;1.67;0.20;;;5.20;89.90;;;;;;5039488;28;20098;-77
2022/02/07 01:00:44;;;;;;;0.63;0.32;;;5.20;89.00;;;;;;5039849;28;20037;-76
2022/02/07 01:03:10;;;;;;;0.17;0.10;;;5.20;89.30;;;;;;5041356;28;20034;-74
2022/02/07 01:05:37;;;;;;;0.82;0.20;;;5.20;89.70;;;;;;5040107;28;20021;-76
2022/02/07 01:08:11;;;;;;;3.00;0.47;;;5.20;89.40;;;;;;5040046;28;20055;-76
2022/02/07 01:10:51;;;;;;;0.43;0.25;;;5.10;90.00;;;;;;5041392;28;20110;-72
2022/02/07 01:16:10;;;;;;;3.47;0.20;;;5.10;90.00;;;;;;5038473;28;20492;-74
2022/02/07 01:54:47;;;;;;;2.85;0.22;;;5.30;89.20;;;;;;5028679;28;20115;-74
2022/02/07 01:57:19;;;;;;;2.83;0.50;;;5.30;89.10;;;;;;5032005;28;20037;-74
2022/02/07 01:59:47;;;;;;;5.15;0.60;;;5.30;89.30;;;;;;5036319;28;20441;-74
2022/02/07 02:02:15;;;;;;;0.20;0.20;;;5.40;89.10;;;;;;5035325;28;20044;-75
2022/02/07 02:04:41;;;;;;;1.20;0.38;;;5.30;89.20;;;;;;5032439;28;20029;-74
2022/02/07 02:07:10;;;;;;;1.08;0.43;;;5.30;89.10;;;;;;5035161;28;20028;-75
2022/02/07 02:09:36;;;;;;;2.35;0.40;;;5.40;89.30;;;;;;5039693;28;20044;-74
2022/02/07 02:12:06;;;;;;;3.40;0.43;;;5.40;89.00;;;;;;5027555;28;20087;-75
2022/02/07 02:14:51;;;;;;;4.35;0.55;;;5.40;88.70;;;;;;5034790;28;20032;-74
2022/02/07 02:46:31;;;;;;;3.50;0.70;;;5.30;87.70;;;;;;5033257;28;20036;-74
2022/02/07 02:49:02;;;;;;;4.93;0.55;;;5.20;88.10;;;;;;5042173;28;20056;-74
2022/02/07 02:51:30;;;;;;;3.03;0.50;;;5.20;87.50;;;;;;5035874;28;20029;-74
2022/02/07 02:53:56;;;;;;;3.38;0.43;;;5.20;88.10;;;;;;5041924;28;20098;-74
2022/02/07 02:56:23;;;;;;;3.55;0.40;;;5.10;87.90;;;;;;5035889;28;20740;-74
2022/02/07 02:58:51;;;;;;;5.28;0.70;;;5.20;88.30;;;;;;5023736;28;20107;-74
2022/02/07 03:01:19;;;;;;;5.88;0.60;;;5.10;88.20;;;;;;5038399;28;20882;-74
2022/02/07 03:03:51;;;;;;;1.85;0.35;;;5.10;88.10;;;;;;5035144;28;20068;-74
2022/02/07 03:06:17;;;;;;;7.13;1.05;;;5.20;88.30;;;;;;5036347;28;20040;-74
2022/02/07 03:08:43;;;;;;;0.70;0.50;;;5.20;88.20;;;;;;5041314;28;20042;-74
2022/02/07 03:11:14;;;;;;;0.95;0.65;;;5.10;88.40;;;;;;5042472;28;20029;-74
2022/02/07 03:13:58;;;;;;;2.78;1.02;;;5.10;88.10;;;;;;5032889;28;20041;-75
2022/02/07 03:16:43;;;;;;;1.58;0.45;;;5.10;88.00;;;;;;5040085;28;20030;-76
2022/02/07 03:19:14;;;;;;;5.50;1.08;;;5.00;88.10;;;;;;5042847;28;20028;-74
2022/02/07 03:21:43;;;;;;;7.78;0.90;;;5.00;88.90;;;;;;5040427;28;20060;-74
2022/02/07 03:24:09;;;;;;;2.58;0.50;;;5.00;88.60;;;;;;5040174;28;20032;-74
2022/02/07 03:26:43;;;;;;;3.00;0.40;;;5.00;89.10;;;;;;5039379;28;20036;-74
2022/02/07 03:29:13;;;;;;;3.15;0.55;;;5.10;88.20;;;;;;5042609;28;20108;-74
2022/02/07 03:31:43;;;;;;;5.00;0.82;;;5.10;87.80;;;;;;5035648;28;20045;-74
2022/02/07 03:34:12;;;;;;;3.03;0.35;;;5.10;87.90;;;;;;5032684;28;20037;-74
2022/02/07 03:36:39;;;;;;;6.10;0.68;;;5.10;88.30;;;;;;5039022;28;20030;-74
2022/02/07 03:39:07;;;;;;;3.22;0.60;;;5.10;88.30;;;;;;5026034;28;20033;-74
2022/02/07 03:41:36;;;;;;;2.03;0.50;;;5.10;88.20;;;;;;5039966;28;20029;-74
2022/02/07 03:44:04;;;;;;;3.00;0.75;;;5.10;88.10;;;;;;5041053;28;20842;-74
2022/02/07 03:46:31;;;;;;;3.75;0.65;;;5.10;88.60;;;;;;5037782;28;20782;-74
2022/02/07 03:48:57;;;;;;;3.35;0.60;;;5.10;88.20;;;;;;5042583;28;20443;-74
2022/02/07 03:51:23;;;;;;;3.70;0.60;;;5.10;88.00;;;;;;5034478;28;20036;-74
2022/02/07 03:53:50;;;;;;;11.52;0.93;;;5.20;88.40;;;;;;5033644;28;20485;-74
2022/02/07 03:56:15;;;;;;;1.55;0.35;;;5.10;88.00;;;;;;5042412;28;20645;-74
2022/02/07 03:58:43;;;;;;;2.25;0.40;;;5.10;88.50;;;;;;5037047;28;20033;-75
2022/02/07 04:01:11;;;;;;;1.73;0.52;;;5.10;88.40;;;;;;5038687;28;20032;-75
2022/02/07 04:03:48;;;;;;;2.00;0.77;;;5.20;88.10;;;;;;5033643;28;20538;-74
2022/02/07 04:06:17;;;;;;;2.22;0.40;;;5.10;88.70;;;;;;5040761;28;20089;-74
2022/02/07 04:08:51;;;;;;;3.42;0.32;;;5.10;88.50;;;;;;5038828;28;20048;-74
2022/02/07 04:11:35;;;;;;;2.38;0.50;;;5.10;88.70;;;;;;5033263;28;20151;-74
2022/02/07 04:14:01;;;;;;;4.32;0.60;;;5.10;89.00;;;;;;5037724;28;20504;-74
2022/02/07 04:16:29;;;;;;;5.47;0.50;;;5.10;88.50;;;;;;5039970;28;20033;-74
2022/02/07 04:19:05;;;;;;;2.88;0.60;;;5.10;88.90;;;;;;5041595;28;20111;-74
2022/02/07 04:21:37;;;;;;;6.38;0.73;;;5.10;88.80;;;;;;5032649;28;20501;-74
2022/02/07 04:24:04;;;;;;;1.33;0.30;;;5.00;89.10;;;;;;5033020;28;20496;-74
2022/02/07 04:26:39;;;;;;;3.40;0.50;;;5.00;90.00;;;;;;5023824;28;20515;-74
2022/02/07 04:29:06;;;;;;;4.18;0.43;;;4.90;90.00;;;;;;5041335;28;20283;-74
2022/02/07 04:31:33;;;;;;;1.35;0.43;;;5.00;90.00;;;;;;5031784;28;20923;-74
2022/02/07 04:33:59;;;;;;;1.98;0.80;;;5.00;89.70;;;;;;5037266;28;20488;-74
2022/02/07 04:36:28;;;;;;;9.07;0.90;;;5.00;89.70;;;;;;5039302;28;20746;-73
2022/02/07 04:38:54;;;;;;;2.17;0.50;;;5.10;89.90;;;;;;5040792;28;20059;-75
2022/02/07 04:41:23;;;;;;;4.25;0.50;;;5.10;89.70;;;;;;5037931;28;20037;-73
2022/02/07 04:44:01;;;;;;;4.20;0.47;;;5.10;89.50;;;;;;5019244;28;20032;-75
2022/02/07 04:50:05;;;;;;;3.58;0.80;;;5.20;89.30;;;;;;5040668;28;20029;-75
2022/02/07 04:52:23;;;;;;;;;;;5.10;88.60;;;;;;5035208;28;20047;-73
2022/02/07 04:57:44;;;;;;;5.00;0.90;;;5.10;88.80;;;;;;5035960;28;20036;-75
2022/02/07 05:03:06;;;;;;;11.70;1.02;;;5.20;88.80;;;;;;5033832;28;20068;-74
2022/02/07 05:13:43;;;;;;;4.18;0.70;;;5.20;88.40;;;;;;5038458;28;20036;-74
2022/02/07 05:13:53;;;;;;;1.80;0.70;;;5.20;89.90;;;;;;5036211;28;20040;-75
2022/02/07 05:16:29;;;;;;;3.58;0.82;;;5.30;88.90;;;;;;5036473;28;20029;-74
2022/02/07 05:19:15;;;;;;;2.40;0.85;;;5.20;89.00;;;;;;5024844;28;20025;-74
2022/02/07 05:22:00;;;;;;;4.40;0.63;;;5.30;88.50;;;;;;5032021;28;20033;-74
2022/02/07 05:24:36;;;;;;;2.33;0.60;;;5.30;89.00;;;;;;5035567;28;20500;-74
2022/02/07 05:27:23;;;;;;;8.38;0.90;;;5.30;88.70;;;;;;5038261;28;20052;-72
2022/02/07 05:29:56;;;;;;;5.10;1.10;;;5.30;89.00;;;;;;5032805;28;20039;-75
2022/02/07 05:32:39;;;;;;;1.73;0.47;;;5.30;89.20;;;;;;5033886;28;20060;-75
2022/02/07 05:35:31;;;;;;;4.72;0.70;;;5.30;89.50;;;;;;5037572;28;20044;-75
2022/02/07 05:38:12;;;;;;;7.13;0.98;;;5.30;88.40;;;;;;5035879;28;20099;-74
2022/02/07 05:40:57;;;;;;;7.57;0.93;;;5.30;88.20;;;;;;5032956;28;20041;-74
2022/02/07 05:43:31;;;;;;;2.13;0.60;;;5.40;88.70;;;;;;5037857;28;20037;-75
2022/02/07 05:46:19;;;;;;;3.72;0.70;;;5.30;88.60;;;;;;5036667;28;20076;-74
2022/02/07 05:49:03;;;;;;;5.60;1.00;;;5.30;89.20;;;;;;5038493;28;20140;-75
2022/02/07 05:52:02;;;;;;;1.05;0.60;;;5.40;88.90;;;;;;5016499;28;20029;-75
2022/02/07 05:54:51;;;;;;;2.13;0.57;;;5.30;88.90;;;;;;5038168;28;20135;-75
2022/02/07 05:57:52;;;;;;;4.65;0.73;;;5.40;88.40;;;;;;5011367;28;20039;-75
2022/02/07 06:00:47;;;;;;;6.43;0.80;;;5.30;88.20;;;;;;5033422;28;20044;-75
2022/02/07 06:03:16;;;;;;;3.35;0.80;;;5.30;88.80;;;;;;5035488;28;20099;-74
2022/02/07 06:05:45;;;;;;;6.57;0.73;;;5.30;89.00;;;;;;5031794;28;20057;-75
2022/02/07 06:08:19;;;;;;;3.15;0.77;;;5.30;89.00;;;;;;5035588;28;20021;-75
2022/02/07 06:10:47;;;;;;;3.95;0.80;;;5.40;88.70;;;;;;5017704;28;20025;-75
2022/02/07 06:13:17;;;;;;;4.80;0.90;;;5.40;88.30;;;;;;5031347;28;20041;-75
2022/02/07 06:15:48;;;;;;;4.63;0.95;;;5.40;88.30;;;;;;5030894;28;20044;-75
2022/02/07 06:18:17;;;;;;;5.80;1.02;;;5.40;88.20;;;;;;5034191;28;20102;-75
2022/02/07 06:20:44;;;;;;;1.85;0.90;;;5.40;88.40;;;;;;5035229;28;20025;-75
2022/02/07 06:23:10;;;;;;;4.15;0.75;;;5.40;88.40;;;;;;5039142;28;20033;-75
2022/02/07 06:25:36;;;;;;;5.82;0.82;;;5.40;88.20;;;;;;5041647;28;20044;-75
2022/02/07 06:28:02;;;;;;;5.50;0.73;;;5.40;88.60;;;;;;5023171;28;20112;-75
2022/02/07 06:30:42;;;;;;;5.75;1.38;;;5.40;88.20;;;;;;5034939;28;20548;-75
2022/02/07 06:33:08;;;;;;;3.72;0.90;;;5.50;88.30;;;;;;5038271;28;20051;-75
2022/02/07 06:35:35;;;;;;;6.18;0.82;;;5.40;88.00;;;;;;5039897;28;20081;-75
2022/02/07 06:38:01;;;;;;;3.67;0.70;;;5.50;88.80;;;;;;5017851;28;20503;-75
2022/02/07 06:40:27;;;;;;;3.20;0.70;;;5.40;87.50;;;;;;5028982;28;20404;-75
2022/02/07 06:42:53;;;;;;;4.65;0.82;;;5.40;88.60;;;;;;5034690;28;20044;-75
2022/02/07 06:45:19;;;;;;;8.98;1.30;;;5.40;88.70;;;;;;5021270;28;20115;-75
2022/02/07 06:47:45;;;;;;;4.47;0.80;;;5.40;88.90;;;;;;5029871;28;20124;-74
2022/02/07 06:50:12;;;;;;;6.00;0.70;;;5.40;88.90;;;;;;5033212;28;20029;-75
2022/02/07 06:52:38;;;;;;;7.72;0.98;;;5.50;89.10;;;;;;5039441;28;20087;-75
2022/02/07 06:55:06;;;;;;;6.07;0.75;;;5.50;88.50;;;;;;5035266;28;20032;-75
2022/02/07 06:57:35;;;;;;;2.53;0.80;;;5.50;88.20;;;;;;5036992;28;20041;-75
2022/02/07 07:00:04;;;;;;;0.93;0.40;;;5.60;88.00;;;;;;5038499;28;20682;-75
2022/02/07 07:02:31;;;;;;;8.70;1.20;;;5.60;87.90;;;;;;5024211;28;20037;-76
2022/02/07 07:05:06;;;;;;;7.28;0.98;;;5.60;88.10;;;;;;5024244;28;20132;-76
2022/02/07 07:07:33;;;;;;;6.47;1.08;;;5.60;88.00;;;;;;5032278;28;20033;-75
2022/02/07 07:09:59;;;;;;;7.90;1.10;;;5.60;88.10;;;;;;5042195;28;20029;-75
2022/02/07 07:12:29;;;;;;;2.05;0.40;;;5.60;87.80;;;;;;5040761;28;20033;-75
2022/02/07 07:15:40;;;;;;;3.58;0.88;;;5.60;88.40;;;;;;5039506;28;20040;-75
2022/02/07 07:17:44;;;;;;;6.53;0.73;;;5.50;88.50;;;;;;5028206;28;20042;-75
2022/02/07 07:20:11;;;;;;;8.73;1.05;;;5.60;88.40;;;;;;5042259;28;20052;-75
2022/02/07 07:22:40;;;;;;;12.40;2.28;;;5.70;88.60;;;;;;5040310;28;20065;-75
2022/02/07 07:25:16;;;;;;;7.00;0.95;;;5.60;88.00;;;;;;5031902;28;20025;-76
2022/02/07 07:28:04;;;;;;;3.70;1.02;;;5.60;88.30;;;;;;5037673;28;20087;-75
2022/02/07 07:30:53;;;;;;;5.57;0.98;;;5.70;88.30;;;;;;5038718;28;20834;-76
2022/02/07 07:33:25;;;;;;;3.22;0.60;;;5.70;87.90;;;;;;5037641;28;20518;-76
2022/02/07 07:35:53;;;;;;;7.55;1.08;;;5.70;87.70;;;;;;5037147;28;20094;-76
2022/02/07 07:38:19;;;;;;;5.32;0.90;;;5.80;88.30;;;;;;5035082;28;20033;-75
2022/02/07 07:40:46;;;;;;;4.97;0.93;;;5.80;88.20;;;;;;5041236;28;20318;-76
2022/02/07 07:43:19;;;;;;;7.13;1.42;;;5.90;88.10;;;;;;5036134;28;20032;-75
2022/02/07 07:46:14;;;;;;;7.85;0.80;;;5.90;87.60;;;;;;5025960;28;20060;-76
2022/02/07 07:49:03;;;;;;;6.95;1.20;;;5.90;87.70;;;;;;5038616;28;20036;-76
2022/02/07 07:51:57;;;;;;;1.00;0.50;;;5.80;86.30;;;;;;5017726;28;20041;-75
2022/02/07 08:02:46;;;;;;;7.72;1.25;;;5.90;86.80;;;;;;5040268;28;20076;-74
2022/02/07 08:05:37;;;;;;;8.82;1.67;;;6.00;87.10;;;;;;5041595;28;20021;-75
2022/02/07 08:08:17;;;;;;;4.07;1.00;;;6.40;86.30;;;;;;5036431;28;20025;-75
2022/02/07 08:11:02;;;;;;;5.18;1.10;;;6.70;84.60;;;;;;5035632;28;20486;-75
2022/02/07 08:13:32;;;;;;;7.97;1.60;;;6.80;83.30;;;;;;5046525;28;20119;-74
2022/02/07 08:16:04;;;;;;;4.35;1.38;;;6.80;83.60;;;;;;5041739;28;20040;-75
2022/02/07 08:18:29;;;;;;;2.53;0.80;;;6.60;83.50;;;;;;5038470;28;20038;-75
2022/02/07 08:20:55;;;;;;;8.30;0.90;;;6.50;84.00;;;;;;5041355;28;20037;-75
2022/02/07 08:23:21;;;;;;;4.30;0.77;;;6.50;84.90;;;;;;5037904;28;20035;-75
2022/02/07 08:25:46;;;;;;;2.97;0.90;;;6.50;84.60;;;;;;5034594;28;20068;-74
2022/02/07 08:28:12;;;;;;;1.80;0.75;;;6.50;84.80;;;;;;5040671;28;20032;-75
2022/02/07 08:30:38;;;;;;;5.28;0.90;;;6.50;84.70;;;;;;5034346;28;20038;-75
2022/02/07 08:33:03;;;;;;;7.18;0.90;;;6.40;84.70;;;;;;5036430;28;20041;-75
2022/02/07 08:35:30;;;;;;;6.93;1.30;;;6.30;85.40;;;;;;5035193;28;20044;-74
2022/02/07 08:37:59;;;;;;;7.65;1.25;;;6.30;85.10;;;;;;5040050;28;20037;-74
2022/02/07 08:40:26;;;;;;;5.57;0.88;;;6.20;85.50;;;;;;5034894;28;20862;-74
2022/02/07 08:42:54;;;;;;;4.13;1.80;;;6.20;85.90;;;;;;5035747;28;20103;-74
2022/02/07 08:45:20;;;;;;;3.85;1.02;;;6.20;86.10;;;;;;5029446;28;20052;-74
2022/02/07 08:47:46;;;;;;;7.10;1.30;;;6.30;86.40;;;;;;5029251;28;20390;-74
2022/02/07 08:50:13;;;;;;;10.40;1.10;;;6.20;85.00;;;;;;5040837;28;20028;-74
2022/02/07 08:52:43;;;;;;;8.82;1.15;;;6.20;85.30;;;;;;5038521;28;20082;-74
2022/02/07 08:55:18;;;;;;;3.28;1.13;;;6.30;86.10;;;;;;5034933;28;20477;-74
2022/02/07 08:57:47;;;;;;;4.15;0.80;;;6.30;86.50;;;;;;5036855;28;20040;-74
2022/02/07 09:03:30;;;;;;;7.10;1.25;;;6.60;86.20;;;;;;5034035;28;20048;-74
2022/02/07 09:08:08;;;;;;;6.00;1.40;;;6.70;85.10;;;;;;5036931;28;20701;-75
2022/02/07 09:10:35;;;;;;;9.32;1.90;;;6.70;85.30;;;;;;5038864;28;20683;-75
2022/02/07 09:13:01;;;;;;;9.77;1.63;;;6.80;85.10;;;;;;5039519;28;20704;-74
2022/02/07 09:15:41;;;;;;;8.57;1.38;;;6.90;84.60;;;;;;5036374;28;20108;-76
2022/02/07 09:18:12;;;;;;;10.50;1.05;;;6.90;83.80;;;;;;5033349;28;20547;-73
2022/02/07 09:20:41;;;;;;;12.10;1.50;;;6.80;84.30;;;;;;5026779;28;20051;-71
2022/02/07 09:23:07;;;;;;;7.97;1.33;;;6.70;84.60;;;;;;5037967;28;20035;-72
2022/02/07 09:25:33;;;;;;;10.07;1.67;;;6.70;85.00;;;;;;5036055;28;20035;-70
2022/02/07 09:27:59;;;;;;;6.25;0.82;;;6.90;85.60;;;;;;5041748;28;20497;-70
2022/02/07 09:30:27;;;;;;;12.60;1.38;;;7.10;85.20;;;;;;5040722;28;20040;-72
2022/02/07 09:32:53;;;;;;;4.43;0.90;;;7.50;83.70;;;;;;5017742;28;20043;-66
2022/02/07 09:35:19;;;;;;;9.05;1.10;;;7.60;83.20;;;;;;5036864;28;20048;-74
2022/02/07 09:37:46;;;;;;;6.80;1.00;;;7.70;83.30;;;;;;5038469;28;20036;-73
2022/02/07 09:40:15;;;;;;;10.93;1.23;;;7.70;82.00;;;;;;5039857;28;20037;-66
2022/02/07 09:42:46;;;;;;;6.35;1.08;;;7.80;81.50;;;;;;5039611;28;20055;-72
2022/02/07 09:45:18;;;;;;;9.07;1.38;;;7.80;81.60;;;;;;5037041;28;20036;-69
2022/02/07 09:47:45;;;;;;;4.68;1.10;;;7.90;81.20;;;;;;5038165;28;20043;-68
2022/02/07 09:50:11;;;;;;;5.07;1.40;;;7.90;81.10;;;;;;5033884;28;20594;-67
2022/02/07 09:52:36;;;;;;;15.10;2.42;;;7.90;79.80;;;;;;5032900;28;20037;-67
2022/02/07 09:55:04;;;;;;;13.38;1.55;;;7.90;80.50;;;;;;5035958;28;20555;-70
2022/02/07 09:57:30;;;;;;;16.73;2.10;;;7.90;80.80;;;;;;5030081;28;20040;-68
2022/02/07 09:59:57;;;;;;;6.40;1.75;;;7.80;80.30;;;;;;5037310;28;20073;-67
2022/02/07 10:02:35;;;;;;;7.50;1.45;;;8.10;79.70;;;;;;5038414;28;20053;-68
2022/02/07 10:05:05;;;;;;;9.90;1.10;;;8.20;79.00;;;;;;5033610;28;20033;-76
2022/02/07 10:15:27;;;;;;;10.32;2.47;;;8.70;76.40;;;;;;5035503;28;20037;-70
2022/02/07 10:21:24;;;;;;;8.05;1.40;;;9.20;73.20;;;;;;5032043;28;20049;-70
2022/02/07 10:40:38;;;;;;;11.30;2.95;;;11.10;67.60;;;;;;5034471;28;20029;-69
2022/02/07 10:45:35;;;;;;;9.95;1.80;;;11.50;62.80;;;;;;5034649;28;20556;-71
2022/02/07 10:48:05;;;;;;;11.98;2.20;;;11.10;65.30;;;;;;5033172;28;20036;-68
2022/02/07 10:50:31;;;;;;;12.63;2.05;;;10.80;66.00;;;;;;5032183;28;20033;-69
2022/02/07 10:52:59;;;;;;;15.07;2.47;;;10.60;65.80;;;;;;5040853;28;20143;-68
2022/02/07 10:55:25;;;;;;;12.13;2.60;;;10.30;66.10;;;;;;5034282;28;20118;-69
2022/02/07 10:57:53;;;;;;;8.25;1.80;;;10.10;66.40;;;;;;5042273;28;20075;-69
2022/02/07 11:00:23;;;;;;;18.35;3.08;;;10.00;66.50;;;;;;5035379;28;20029;-69
2022/02/07 11:05:23;;;;;;;12.18;3.42;;;9.70;67.30;;;;;;5043249;28;20033;-69
2022/02/07 11:07:54;;;;;;;7.65;2.15;;;9.70;67.70;;;;;;5041596;28;20090;-67
2022/02/07 11:10:35;;;;;;;9.68;2.20;;;9.70;68.20;;;;;;5035994;28;20097;-68
2022/02/07 11:16:02;;;;;;;15.27;2.10;;;9.80;67.50;;;;;;5037915;28;20060;-69
2022/02/07 11:19:39;;;;;;;11.82;2.17;;;9.90;66.40;;;;;;5037014;28;20036;-69
2022/02/07 11:22:40;;;;;;;14.57;2.95;;;9.90;65.70;;;;;;5030887;28;20443;-69
2022/02/07 11:27:52;;;;;;;8.65;2.05;;;9.60;66.10;;;;;;5036425;28;20056;-68
2022/02/07 11:30:41;;;;;;;11.90;1.67;;;9.70;67.30;;;;;;5036998;28;20028;-68
2022/02/07 11:33:26;;;;;;;14.13;2.58;;;9.60;65.60;;;;;;5035119;28;20025;-69
2022/02/07 11:35:52;;;;;;;14.40;2.15;;;9.50;66.50;;;;;;5038258;28;20115;-69
2022/02/07 11:38:19;;;;;;;14.90;2.38;;;9.30;66.00;;;;;;5029109;28;20054;-69
2022/02/07 11:41:06;;;;;;;14.82;2.03;;;9.20;65.90;;;;;;5034429;28;20423;-69
2022/02/07 11:43:34;;;;;;;12.30;2.50;;;9.30;66.70;;;;;;5035729;28;20452;-70
2022/02/07 11:46:08;;;;;;;11.90;2.22;;;9.20;66.20;;;;;;5042100;28;20036;-69
2022/02/07 11:48:49;;;;;;;14.68;2.38;;;9.20;65.90;;;;;;5039503;28;20041;-70
2022/02/07 11:51:37;;;;;;;19.10;3.08;;;9.40;67.00;;;;;;5038584;28;20756;-69
2022/02/07 11:54:07;;;;;;;12.95;2.38;;;9.40;64.90;;;;;;5038099;28;20036;-70
2022/02/07 11:56:52;;;;;;;13.93;2.20;;;9.30;64.80;;;;;;5036253;28;20033;-69
2022/02/07 11:59:28;;;;;;;10.60;2.40;;;9.30;64.80;;;;;;5037691;28;20029;-70
2022/02/07 12:02:17;;;;;;;7.47;1.88;;;9.20;63.70;;;;;;5030593;28;20515;-70
2022/02/07 12:04:48;;;;;;;13.65;2.28;;;9.20;64.80;;;;;;5035563;28;20067;-69
2022/02/07 12:07:23;;;;;;;11.23;2.47;;;9.20;64.60;;;;;;5037879;28;20033;-69
2022/02/07 12:10:13;;;;;;;12.65;1.65;;;9.30;64.00;;;;;;5030773;28;20709;-69
2022/02/07 12:12:39;;;;;;;13.32;2.50;;;9.40;62.30;;;;;;5032582;28;20037;-70
2022/02/07 12:15:38;;;;;;;10.82;1.85;;;9.60;62.70;;;;;;5041416;28;20048;-69
2022/02/07 12:18:12;;;;;;;18.15;2.55;;;9.70;60.80;;;;;;5037533;28;20091;-69
2022/02/07 12:20:39;;;;;;;14.45;2.25;;;9.90;61.20;;;;;;5034046;28;20052;-73
2022/02/07 12:23:14;;;;;;;8.27;1.83;;;10.10;60.90;;;;;;5031178;28;20040;-69
2022/02/07 12:25:45;;;;;;;17.83;2.70;;;10.20;60.70;;;;;;5039729;28;20052;-70
2022/02/07 12:28:29;;;;;;;8.85;3.30;;;10.30;59.10;;;;;;5038499;28;20116;-70
2022/02/07 12:33:30;;;;;;;15.35;2.70;;;10.00;58.10;;;;;;5037598;28;20032;-72
2022/02/07 12:36:00;;;;;;;14.65;2.50;;;9.90;59.50;;;;;;5034638;28;20032;-70
2022/02/07 12:38:28;;;;;;;16.70;2.65;;;9.80;59.80;;;;;;5034470;28;20037;-71
2022/02/07 12:40:55;;;;;;;13.88;2.80;;;9.80;59.80;;;;;;5037909;28;20094;-70
2022/02/07 12:43:21;;;;;;;21.25;3.63;;;9.80;59.50;;;;;;5034646;28;20033;-70
2022/02/07 12:45:48;;;;;;;13.85;2.35;;;9.80;58.80;;;;;;5035210;28;20033;-70
2022/02/07 12:48:19;;;;;;;13.43;2.17;;;9.90;58.70;;;;;;5033634;28;20044;-69
2022/02/07 12:50:50;;;;;;;9.68;2.13;;;9.80;58.20;;;;;;5030329;28;20144;-70
2022/02/07 12:53:18;;;;;;;14.55;2.78;;;9.70;57.30;;;;;;5034451;28;20043;-69
2022/02/07 12:55:55;;;;;;;11.68;2.70;;;9.60;58.10;;;;;;5036570;28;20036;-69
2022/02/07 12:58:22;;;;;;;11.85;3.00;;;9.60;60.20;;;;;;5034465;28;20040;-70
2022/02/07 13:00:48;;;;;;;12.13;2.75;;;9.70;58.70;;;;;;5031893;28;20128;-69
2022/02/07 13:03:14;;;;;;;13.60;2.60;;;9.70;57.80;;;;;;5032122;28;20044;-69
2022/02/07 13:05:40;;;;;;;15.73;2.85;;;9.60;58.90;;;;;;5033572;28;20021;-68
2022/02/07 13:08:07;;;;;;;9.43;2.72;;;9.70;58.50;;;;;;5036205;28;20025;-68
2022/02/07 13:10:36;;;;;;;13.18;1.92;;;9.90;59.20;;;;;;5034175;28;20033;-66
2022/02/07 13:13:26;;;;;;;13.23;2.42;;;10.00;57.90;;;;;;5035526;28;20428;-70
2022/02/07 13:15:52;;;;;;;8.50;2.20;;;10.10;56.80;;;;;;5038082;28;20670;-69
2022/02/07 13:18:20;;;;;;;10.00;2.13;;;9.80;55.30;;;;;;5036725;28;20110;-69
2022/02/07 13:20:47;;;;;;;15.60;2.42;;;9.60;56.80;;;;;;5037521;28;20024;-69
2022/02/07 13:23:17;;;;;;;8.80;2.08;;;9.60;57.30;;;;;;5029526;28;20036;-73
2022/02/07 13:25:48;;;;;;;14.80;2.35;;;9.50;57.70;;;;;;5041140;28;20098;-69
2022/02/07 13:28:17;;;;;;;7.18;1.70;;;9.40;57.10;;;;;;5038674;28;20111;-69
2022/02/07 13:30:46;;;;;;;8.38;1.90;;;9.40;57.80;;;;;;5040128;28;20028;-69
2022/02/07 13:33:12;;;;;;;9.60;1.58;;;9.20;57.90;;;;;;5040853;28;20041;-69
2022/02/07 13:35:43;;;;;;;5.82;1.23;;;9.00;59.20;;;;;;5039847;28;20032;-69
2022/02/07 13:38:11;;;;;;;3.72;1.27;;;8.80;58.40;;;;;;5039984;28;20147;-70
2022/02/07 13:40:48;;;;;;;12.45;1.70;;;8.60;58.60;;;;;;5039857;28;20047;-69
2022/02/07 13:43:29;;;;;;;9.68;1.40;;;8.50;58.60;;;;;;5040412;28;20035;-70
2022/02/07 13:46:04;;;;;;;11.27;1.48;;;8.40;60.00;;;;;;5040743;28;20024;-68
2022/02/07 13:48:33;;;;;;;7.05;1.60;;;8.40;61.00;;;;;;5041750;28;20032;-69
2022/02/07 13:51:00;;;;;;;9.93;1.48;;;8.30;61.20;;;;;;5041485;28;20024;-70
2022/02/07 13:53:28;;;;;;;10.68;1.58;;;8.20;61.50;;;;;;5040028;28;20044;-70
2022/02/07 13:55:58;;;;;;;9.60;1.35;;;8.30;62.00;;;;;;5048533;28;20028;-72
2022/02/07 13:58:33;;;;;;;8.60;1.73;;;8.30;61.70;;;;;;5056784;28;20044;-69
2022/02/07 14:01:07;;;;;;;11.98;1.52;;;8.30;60.90;;;;;;5036580;28;20029;-81
2022/02/07 14:03:45;;;;;;;5.18;1.45;;;8.40;60.80;;;;;;5037304;28;20045;-68
2022/02/07 14:06:12;;;;;;;11.60;1.92;;;8.40;61.00;;;;;;5044370;28;20025;-69
2022/02/07 14:08:44;;;;;;;9.43;1.27;;;8.40;61.10;;;;;;5034512;28;20028;-70
2022/02/07 14:11:12;;;;;;;6.85;1.13;;;8.50;62.10;;;;;;5039068;28;20038;-70
2022/02/07 14:13:40;;;;;;;10.02;1.75;;;8.50;61.10;;;;;;5033530;28;20036;-72
2022/02/07 14:16:07;;;;;;;8.93;1.48;;;8.50;61.70;;;;;;5036853;28;20036;-70
2022/02/07 14:18:37;;;;;;;11.07;1.50;;;8.50;61.60;;;;;;5027820;28;20052;-70
2022/02/07 14:21:08;;;;;;;14.07;2.67;;;8.50;60.70;;;;;;5032335;28;20032;-70
2022/02/07 14:23:35;;;;;;;10.93;1.55;;;8.60;61.00;;;;;;5036442;28;20033;-66
2022/02/07 14:26:03;;;;;;;10.52;2.30;;;8.50;61.20;;;;;;5038275;28;20039;-68
2022/02/07 14:28:29;;;;;;;9.77;1.70;;;8.50;60.30;;;;;;5032503;28;20036;-68
2022/02/07 14:30:57;;;;;;;12.88;2.65;;;8.50;61.40;;;;;;5038597;28;20026;-71
2022/02/07 14:33:23;;;;;;;11.77;2.03;;;8.50;62.00;;;;;;5036252;28;20044;-65
2022/02/07 14:35:50;;;;;;;11.27;1.88;;;8.40;61.20;;;;;;5035776;28;20025;-67
2022/02/07 14:38:16;;;;;;;7.82;1.63;;;8.30;61.30;;;;;;5036087;28;20485;-68
2022/02/07 14:40:42;;;;;;;9.07;1.50;;;8.30;62.60;;;;;;5038035;28;20048;-73
2022/02/07 14:43:15;;;;;;;6.57;0.90;;;8.20;63.70;;;;;;5034146;28;20969;-73
2022/02/07 14:45:54;;;;;;;2.67;1.13;;;8.10;62.50;;;;;;5036190;28;20144;-72
2022/02/07 14:48:21;;;;;;;1.40;0.50;;;7.90;64.60;;;;;;5031343;28;20076;-72
2022/02/07 14:50:46;;;;;;;6.28;0.95;;;7.70;65.90;;;;;;5037745;28;20053;-69
2022/02/07 14:53:15;;;;;;;6.10;1.45;;;7.50;67.70;;;;;;5033803;28;20124;-68
2022/02/07 14:55:41;;;;;;;7.53;1.52;;;7.40;69.40;;;;;;5037858;28;20068;-73
2022/02/07 14:58:08;;;;;;;5.97;1.48;;;7.30;70.40;;;;;;5035431;28;20033;-68
2022/02/07 15:00:36;;;;;;;5.85;1.52;;;7.10;71.40;;;;;;5038419;28;20037;-68
2022/02/07 15:03:04;;;;;;;7.70;1.40;;;7.00;72.40;;;;;;5032856;28;20025;-68
2022/02/07 15:05:30;;;;;;;5.43;2.03;;;6.90;72.90;;;;;;5035230;28;20040;-69
2022/02/07 15:07:57;;;;;;;9.65;1.92;;;6.80;73.40;;;;;;5037258;28;20025;-69
2022/02/07 15:10:24;;;;;;;4.40;1.63;;;6.70;73.90;;;;;;5034121;28;20512;-69
2022/02/07 15:12:50;;;;;;;6.25;1.35;;;6.70;74.60;;;;;;5038883;28;20136;-70
2022/02/07 15:15:16;;;;;;;7.80;1.45;;;6.70;74.30;;;;;;5037602;28;20027;-69
2022/02/07 15:17:43;;;;;;;6.28;1.30;;;6.60;74.20;;;;;;5040471;28;20452;-69
2022/02/07 15:20:10;;;;;;;7.85;1.60;;;6.60;74.30;;;;;;5038767;28;20037;-68
2022/02/07 15:22:37;;;;;;;11.52;1.80;;;6.60;74.30;;;;;;5037209;28;20068;-68
2022/02/07 15:25:04;;;;;;;12.35;1.75;;;6.50;74.00;;;;;;5041700;28;20307;-68
2022/02/07 15:27:29;;;;;;;9.00;1.40;;;6.50;73.60;;;;;;5040346;28;20021;-68
2022/02/07 15:29:59;;;;;;;8.98;1.27;;;6.40;73.60;;;;;;5038291;28;20378;-68
2022/02/07 15:32:28;;;;;;;16.65;2.30;;;6.40;73.60;;;;;;5041335;28;20083;-67
2022/02/07 15:35:04;;;;;;;8.15;2.22;;;6.40;73.30;;;;;;5033179;28;20052;-71
2022/02/07 15:37:31;;;;;;;6.75;1.55;;;6.40;73.60;;;;;;5039039;28;20567;-68
2022/02/07 15:39:57;;;;;;;9.07;1.60;;;6.40;73.40;;;;;;5037448;28;20033;-68